sensor_id;sensor_type;location;lat;lon;timestamp;P1;durP1;ratioP1;P2;durP2;ratioP2
74347;SDS011;62778;50.406;10.008;2022-09-29T00:00:02;3.72;;;1.30;;
74347;SDS011;62778;50.406;10.008;2022-09-29T00:00:57;4.20;;;1.60;;
74347;SDS011;62778;50.406;10.008;2022-09-29T00:01:53;3.93;;;1.40;;
74347;SDS011;62778;50.406;10.008;2022-09-29T00:02:48;6.63;;;1.70;;
74347;SDS011;62778;50.406;10.008;2022-09-29T00:03:43;4.37;;;1.50;;
74347;SDS011;62778;50.406;10.008;2022-09-29T00:04:39;4.30;;;1.60;;
74347;SDS011;62778;50.406;10.008;2022-09-29T00:05:34;4.67;;;1.60;;
74347;SDS011;62778;50.406;10.008;2022-09-29T00:06:29;4.13;;;1.60;;
74347;SDS011;62778;50.406;10.008;2022-09-29T00:07:25;3.85;;;1.35;;
74347;SDS011;62778;50.406;10.008;2022-09-29T00:08:21;3.77;;;1.33;;
74347;SDS011;62778;50.406;10.008;2022-09-29T00:09:18;3.92;;;1.55;;
74347;SDS011;62778;50.406;10.008;2022-09-29T00:10:14;4.17;;;1.33;;
74347;SDS011;62778;50.406;10.008;2022-09-29T00:11:09;4.33;;;1.67;;
74347;SDS011;62778;50.406;10.008;2022-09-29T00:12:06;4.05;;;1.23;;
74347;SDS011;62778;50.406;10.008;2022-09-29T00:13:01;3.67;;;1.30;;
74347;SDS011;62778;50.406;10.008;2022-09-29T00:13:56;4.10;;;1.70;;
74347;SDS011;62778;50.406;10.008;2022-09-29T00:14:52;4.33;;;1.57;;
74347;SDS011;62778;50.406;10.008;2022-09-29T00:15:55;4.10;;;1.55;;
74347;SDS011;62778;50.406;10.008;2022-09-29T00:16:54;4.38;;;1.60;;
74347;SDS011;62778;50.406;10.008;2022-09-29T00:17:49;4.37;;;1.60;;
74347;SDS011;62778;50.406;10.008;2022-09-29T00:18:44;4.67;;;1.60;;
74347;SDS011;62778;50.406;10.008;2022-09-29T00:19:40;4.30;;;1.70;;
74347;SDS011;62778;50.406;10.008;2022-09-29T00:20:35;3.83;;;1.50;;
74347;SDS011;62778;50.406;10.008;2022-09-29T00:21:32;3.78;;;1.17;;
74347;SDS011;62778;50.406;10.008;2022-09-29T00:22:27;6.70;;;1.70;;
74347;SDS011;62778;50.406;10.008;2022-09-29T00:23:23;4.37;;;1.83;;
74347;SDS011;62778;50.406;10.008;2022-09-29T00:24:19;3.90;;;1.45;;
74347;SDS011;62778;50.406;10.008;2022-09-29T00:25:14;5.00;;;1.53;;
74347;SDS011;62778;50.406;10.008;2022-09-29T00:27:09;4.45;;;1.60;;
74347;SDS011;62778;50.406;10.008;2022-09-29T00:28:05;4.00;;;1.53;;
74347;SDS011;62778;50.406;10.008;2022-09-29T00:29:00;4.50;;;1.77;;
74347;SDS011;62778;50.406;10.008;2022-09-29T00:29:55;4.73;;;1.80;;
74347;SDS011;62778;50.406;10.008;2022-09-29T00:30:51;4.63;;;1.60;;
74347;SDS011;62778;50.406;10.008;2022-09-29T00:31:46;5.00;;;1.83;;
74347;SDS011;62778;50.406;10.008;2022-09-29T00:32:41;3.90;;;1.60;;
74347;SDS011;62778;50.406;10.008;2022-09-29T00:33:37;4.57;;;1.60;;
74347;SDS011;62778;50.406;10.008;2022-09-29T00:34:32;4.47;;;1.60;;
74347;SDS011;62778;50.406;10.008;2022-09-29T00:35:28;5.28;;;1.73;;
74347;SDS011;62778;50.406;10.008;2022-09-29T00:36:23;4.30;;;1.70;;
74347;SDS011;62778;50.406;10.008;2022-09-29T00:37:19;4.82;;;1.70;;
74347;SDS011;62778;50.406;10.008;2022-09-29T00:38:14;4.40;;;1.70;;
74347;SDS011;62778;50.406;10.008;2022-09-29T00:39:10;4.40;;;1.80;;
74347;SDS011;62778;50.406;10.008;2022-09-29T00:40:05;4.30;;;1.88;;
74347;SDS011;62778;50.406;10.008;2022-09-29T00:41:02;4.23;;;1.50;;
74347;SDS011;62778;50.406;10.008;2022-09-29T00:41:57;3.80;;;1.50;;
74347;SDS011;62778;50.406;10.008;2022-09-29T00:42:52;4.03;;;1.47;;
74347;SDS011;62778;50.406;10.008;2022-09-29T00:43:55;3.97;;;1.40;;
74347;SDS011;62778;50.406;10.008;2022-09-29T00:46:15;4.00;;;1.60;;
74347;SDS011;62778;50.406;10.008;2022-09-29T00:47:16;4.57;;;1.60;;
74347;SDS011;62778;50.406;10.008;2022-09-29T00:48:13;4.40;;;1.63;;
74347;SDS011;62778;50.406;10.008;2022-09-29T00:50:37;4.05;;;1.30;;
74347;SDS011;62778;50.406;10.008;2022-09-29T00:51:36;3.92;;;1.20;;
74347;SDS011;62778;50.406;10.008;2022-09-29T00:52:33;3.67;;;1.17;;
74347;SDS011;62778;50.406;10.008;2022-09-29T00:53:34;4.53;;;1.27;;
74347;SDS011;62778;50.406;10.008;2022-09-29T00:54:37;4.00;;;1.20;;
74347;SDS011;62778;50.406;10.008;2022-09-29T00:55:37;3.60;;;1.15;;
74347;SDS011;62778;50.406;10.008;2022-09-29T00:56:36;4.10;;;1.50;;
74347;SDS011;62778;50.406;10.008;2022-09-29T00:57:35;4.50;;;2.00;;
74347;SDS011;62778;50.406;10.008;2022-09-29T00:58:35;4.35;;;1.35;;
74347;SDS011;62778;50.406;10.008;2022-09-29T00:59:53;3.80;;;1.40;;
74347;SDS011;62778;50.406;10.008;2022-09-29T01:00:50;3.60;;;1.30;;
74347;SDS011;62778;50.406;10.008;2022-09-29T01:01:46;3.70;;;1.40;;
74347;SDS011;62778;50.406;10.008;2022-09-29T01:02:42;4.73;;;1.50;;
74347;SDS011;62778;50.406;10.008;2022-09-29T01:03:41;4.00;;;1.50;;
74347;SDS011;62778;50.406;10.008;2022-09-29T01:04:39;4.43;;;1.80;;
74347;SDS011;62778;50.406;10.008;2022-09-29T01:05:38;4.30;;;1.30;;
74347;SDS011;62778;50.406;10.008;2022-09-29T01:06:46;3.70;;;1.05;;
74347;SDS011;62778;50.406;10.008;2022-09-29T01:07:44;5.65;;;1.70;;
74347;SDS011;62778;50.406;10.008;2022-09-29T01:08:47;4.57;;;1.53;;
74347;SDS011;62778;50.406;10.008;2022-09-29T01:09:46;4.32;;;1.45;;
74347;SDS011;62778;50.406;10.008;2022-09-29T01:10:42;4.13;;;1.50;;
74347;SDS011;62778;50.406;10.008;2022-09-29T01:11:37;4.07;;;1.50;;
74347;SDS011;62778;50.406;10.008;2022-09-29T01:12:33;4.40;;;1.60;;
74347;SDS011;62778;50.406;10.008;2022-09-29T01:13:30;4.45;;;2.00;;
74347;SDS011;62778;50.406;10.008;2022-09-29T01:14:28;4.63;;;2.05;;
74347;SDS011;62778;50.406;10.008;2022-09-29T01:15:24;5.72;;;2.28;;
74347;SDS011;62778;50.406;10.008;2022-09-29T01:16:21;5.40;;;2.50;;
74347;SDS011;62778;50.406;10.008;2022-09-29T01:17:16;5.60;;;2.27;;
74347;SDS011;62778;50.406;10.008;2022-09-29T01:18:12;4.40;;;1.83;;
74347;SDS011;62778;50.406;10.008;2022-09-29T01:19:09;4.82;;;1.67;;
74347;SDS011;62778;50.406;10.008;2022-09-29T01:20:10;6.82;;;1.90;;
74347;SDS011;62778;50.406;10.008;2022-09-29T01:24:55;6.60;;;2.72;;
74347;SDS011;62778;50.406;10.008;2022-09-29T01:27:35;5.55;;;2.40;;
74347;SDS011;62778;50.406;10.008;2022-09-29T01:30:02;7.30;;;2.92;;
74347;SDS011;62778;50.406;10.008;2022-09-29T01:31:11;5.20;;;2.20;;
74347;SDS011;62778;50.406;10.008;2022-09-29T01:34:08;5.20;;;2.27;;
74347;SDS011;62778;50.406;10.008;2022-09-29T01:35:20;5.85;;;2.30;;
74347;SDS011;62778;50.406;10.008;2022-09-29T01:39:11;4.53;;;2.00;;
74347;SDS011;62778;50.406;10.008;2022-09-29T01:41:15;5.50;;;2.10;;
74347;SDS011;62778;50.406;10.008;2022-09-29T01:42:18;4.97;;;2.20;;
74347;SDS011;62778;50.406;10.008;2022-09-29T01:43:23;4.78;;;2.08;;
74347;SDS011;62778;50.406;10.008;2022-09-29T01:45:38;6.03;;;2.20;;
74347;SDS011;62778;50.406;10.008;2022-09-29T01:46:37;5.60;;;2.40;;
74347;SDS011;62778;50.406;10.008;2022-09-29T01:47:57;5.60;;;2.78;;
74347;SDS011;62778;50.406;10.008;2022-09-29T01:48:54;7.43;;;3.70;;
74347;SDS011;62778;50.406;10.008;2022-09-29T01:49:51;6.88;;;3.20;;
74347;SDS011;62778;50.406;10.008;2022-09-29T01:50:51;5.15;;;2.40;;
74347;SDS011;62778;50.406;10.008;2022-09-29T01:51:50;4.93;;;2.30;;
74347;SDS011;62778;50.406;10.008;2022-09-29T01:52:53;5.30;;;2.67;;
74347;SDS011;62778;50.406;10.008;2022-09-29T01:53:52;4.45;;;2.20;;
74347;SDS011;62778;50.406;10.008;2022-09-29T01:54:54;5.10;;;2.20;;
74347;SDS011;62778;50.406;10.008;2022-09-29T01:55:54;5.60;;;2.67;;
74347;SDS011;62778;50.406;10.008;2022-09-29T01:56:57;4.47;;;2.03;;
74347;SDS011;62778;50.406;10.008;2022-09-29T01:58:01;6.57;;;2.30;;
74347;SDS011;62778;50.406;10.008;2022-09-29T01:59:24;5.75;;;2.90;;
74347;SDS011;62778;50.406;10.008;2022-09-29T02:00:48;6.28;;;2.80;;
74347;SDS011;62778;50.406;10.008;2022-09-29T02:01:46;4.68;;;2.13;;
74347;SDS011;62778;50.406;10.008;2022-09-29T02:02:46;4.82;;;2.20;;
74347;SDS011;62778;50.406;10.008;2022-09-29T02:03:50;5.03;;;2.17;;
74347;SDS011;62778;50.406;10.008;2022-09-29T02:05:03;4.43;;;2.00;;
74347;SDS011;62778;50.406;10.008;2022-09-29T02:06:03;4.47;;;2.10;;
74347;SDS011;62778;50.406;10.008;2022-09-29T02:07:07;5.20;;;2.20;;
74347;SDS011;62778;50.406;10.008;2022-09-29T02:08:11;4.78;;;2.20;;
74347;SDS011;62778;50.406;10.008;2022-09-29T02:09:10;4.85;;;2.38;;
74347;SDS011;62778;50.406;10.008;2022-09-29T02:10:09;5.80;;;2.42;;
74347;SDS011;62778;50.406;10.008;2022-09-29T02:11:11;5.35;;;2.80;;
74347;SDS011;62778;50.406;10.008;2022-09-29T02:12:07;6.15;;;3.20;;
74347;SDS011;62778;50.406;10.008;2022-09-29T02:13:05;7.80;;;3.00;;
74347;SDS011;62778;50.406;10.008;2022-09-29T02:14:11;5.78;;;3.05;;
74347;SDS011;62778;50.406;10.008;2022-09-29T02:15:13;6.40;;;3.42;;
74347;SDS011;62778;50.406;10.008;2022-09-29T02:16:10;5.82;;;2.95;;
74347;SDS011;62778;50.406;10.008;2022-09-29T02:17:10;7.13;;;3.63;;
74347;SDS011;62778;50.406;10.008;2022-09-29T02:18:17;7.50;;;3.50;;
74347;SDS011;62778;50.406;10.008;2022-09-29T02:19:19;6.88;;;3.53;;
74347;SDS011;62778;50.406;10.008;2022-09-29T02:20:17;6.30;;;2.90;;
74347;SDS011;62778;50.406;10.008;2022-09-29T02:21:12;5.68;;;2.80;;
74347;SDS011;62778;50.406;10.008;2022-09-29T02:22:08;5.47;;;2.83;;
74347;SDS011;62778;50.406;10.008;2022-09-29T02:23:03;6.70;;;3.10;;
74347;SDS011;62778;50.406;10.008;2022-09-29T02:23:58;7.17;;;2.70;;
74347;SDS011;62778;50.406;10.008;2022-09-29T02:24:54;4.50;;;2.08;;
74347;SDS011;62778;50.406;10.008;2022-09-29T02:25:53;4.47;;;2.10;;
74347;SDS011;62778;50.406;10.008;2022-09-29T02:26:50;5.25;;;2.20;;
74347;SDS011;62778;50.406;10.008;2022-09-29T02:27:46;4.70;;;2.10;;
74347;SDS011;62778;50.406;10.008;2022-09-29T02:28:44;4.90;;;2.50;;
74347;SDS011;62778;50.406;10.008;2022-09-29T02:29:39;4.90;;;2.47;;
74347;SDS011;62778;50.406;10.008;2022-09-29T02:30:35;4.90;;;2.07;;
74347;SDS011;62778;50.406;10.008;2022-09-29T02:31:31;5.63;;;2.00;;
74347;SDS011;62778;50.406;10.008;2022-09-29T02:32:27;5.10;;;1.90;;
74347;SDS011;62778;50.406;10.008;2022-09-29T02:33:25;5.50;;;2.13;;
74347;SDS011;62778;50.406;10.008;2022-09-29T02:34:20;5.20;;;2.28;;
74347;SDS011;62778;50.406;10.008;2022-09-29T02:35:16;5.35;;;2.10;;
74347;SDS011;62778;50.406;10.008;2022-09-29T02:38:33;4.72;;;2.20;;
74347;SDS011;62778;50.406;10.008;2022-09-29T02:40:48;4.70;;;2.10;;
74347;SDS011;62778;50.406;10.008;2022-09-29T02:42:00;4.88;;;2.17;;
74347;SDS011;62778;50.406;10.008;2022-09-29T02:44:21;5.30;;;2.30;;
74347;SDS011;62778;50.406;10.008;2022-09-29T02:45:29;4.90;;;2.28;;
74347;SDS011;62778;50.406;10.008;2022-09-29T02:48:58;5.13;;;2.17;;
74347;SDS011;62778;50.406;10.008;2022-09-29T02:51:27;5.57;;;2.25;;
74347;SDS011;62778;50.406;10.008;2022-09-29T02:55:19;5.80;;;2.60;;
74347;SDS011;62778;50.406;10.008;2022-09-29T03:00:54;5.82;;;2.33;;
74347;SDS011;62778;50.406;10.008;2022-09-29T03:01:52;5.53;;;2.50;;
74347;SDS011;62778;50.406;10.008;2022-09-29T03:02:49;5.85;;;2.65;;
74347;SDS011;62778;50.406;10.008;2022-09-29T03:03:44;4.80;;;2.10;;
74347;SDS011;62778;50.406;10.008;2022-09-29T03:04:40;5.30;;;2.53;;
74347;SDS011;62778;50.406;10.008;2022-09-29T03:05:35;5.37;;;2.10;;
74347;SDS011;62778;50.406;10.008;2022-09-29T03:06:30;5.43;;;2.03;;
74347;SDS011;62778;50.406;10.008;2022-09-29T03:07:26;5.22;;;2.10;;
74347;SDS011;62778;50.406;10.008;2022-09-29T03:08:21;4.90;;;2.20;;
74347;SDS011;62778;50.406;10.008;2022-09-29T03:09:17;4.97;;;2.30;;
74347;SDS011;62778;50.406;10.008;2022-09-29T03:10:13;6.00;;;2.50;;
74347;SDS011;62778;50.406;10.008;2022-09-29T03:11:09;5.65;;;2.90;;
74347;SDS011;62778;50.406;10.008;2022-09-29T03:12:05;5.27;;;2.30;;
74347;SDS011;62778;50.406;10.008;2022-09-29T03:13:00;4.93;;;2.40;;
74347;SDS011;62778;50.406;10.008;2022-09-29T03:13:55;6.00;;;2.40;;
74347;SDS011;62778;50.406;10.008;2022-09-29T03:14:50;5.13;;;2.20;;
74347;SDS011;62778;50.406;10.008;2022-09-29T03:15:46;5.10;;;2.47;;
74347;SDS011;62778;50.406;10.008;2022-09-29T03:16:41;5.40;;;2.50;;
74347;SDS011;62778;50.406;10.008;2022-09-29T03:17:37;6.43;;;2.80;;
74347;SDS011;62778;50.406;10.008;2022-09-29T03:18:33;4.82;;;2.53;;
74347;SDS011;62778;50.406;10.008;2022-09-29T03:19:28;5.97;;;2.60;;
74347;SDS011;62778;50.406;10.008;2022-09-29T03:20:24;5.20;;;2.93;;
74347;SDS011;62778;50.406;10.008;2022-09-29T03:21:20;6.13;;;2.53;;
74347;SDS011;62778;50.406;10.008;2022-09-29T03:22:15;5.20;;;2.57;;
74347;SDS011;62778;50.406;10.008;2022-09-29T03:23:12;6.70;;;2.80;;
74347;SDS011;62778;50.406;10.008;2022-09-29T03:24:07;5.27;;;2.70;;
74347;SDS011;62778;50.406;10.008;2022-09-29T03:25:03;6.43;;;2.90;;
74347;SDS011;62778;50.406;10.008;2022-09-29T03:26:00;5.53;;;3.05;;
74347;SDS011;62778;50.406;10.008;2022-09-29T03:26:55;6.13;;;3.50;;
74347;SDS011;62778;50.406;10.008;2022-09-29T03:27:50;6.00;;;3.20;;
74347;SDS011;62778;50.406;10.008;2022-09-29T03:28:46;5.97;;;3.20;;
74347;SDS011;62778;50.406;10.008;2022-09-29T03:29:41;8.27;;;3.15;;
74347;SDS011;62778;50.406;10.008;2022-09-29T03:30:37;5.43;;;3.33;;
74347;SDS011;62778;50.406;10.008;2022-09-29T03:31:32;6.23;;;3.20;;
74347;SDS011;62778;50.406;10.008;2022-09-29T03:32:27;6.50;;;3.40;;
74347;SDS011;62778;50.406;10.008;2022-09-29T03:33:24;6.05;;;3.63;;
74347;SDS011;62778;50.406;10.008;2022-09-29T03:34:19;4.82;;;2.53;;
74347;SDS011;62778;50.406;10.008;2022-09-29T03:35:15;4.90;;;2.80;;
74347;SDS011;62778;50.406;10.008;2022-09-29T03:36:10;5.00;;;2.70;;
74347;SDS011;62778;50.406;10.008;2022-09-29T03:37:05;6.27;;;2.80;;
74347;SDS011;62778;50.406;10.008;2022-09-29T03:38:01;5.53;;;2.67;;
74347;SDS011;62778;50.406;10.008;2022-09-29T03:38:56;4.80;;;2.40;;
74347;SDS011;62778;50.406;10.008;2022-09-29T03:39:51;5.37;;;2.30;;
74347;SDS011;62778;50.406;10.008;2022-09-29T03:40:47;4.77;;;2.60;;
74347;SDS011;62778;50.406;10.008;2022-09-29T03:41:42;5.50;;;2.95;;
74347;SDS011;62778;50.406;10.008;2022-09-29T03:42:37;5.37;;;2.60;;
74347;SDS011;62778;50.406;10.008;2022-09-29T03:43:33;5.70;;;2.97;;
74347;SDS011;62778;50.406;10.008;2022-09-29T03:44:28;6.10;;;3.03;;
74347;SDS011;62778;50.406;10.008;2022-09-29T03:45:23;5.60;;;2.63;;
74347;SDS011;62778;50.406;10.008;2022-09-29T03:46:19;5.40;;;2.60;;
74347;SDS011;62778;50.406;10.008;2022-09-29T03:47:14;4.80;;;2.30;;
74347;SDS011;62778;50.406;10.008;2022-09-29T03:48:09;4.90;;;2.33;;
74347;SDS011;62778;50.406;10.008;2022-09-29T03:49:05;5.00;;;2.60;;
74347;SDS011;62778;50.406;10.008;2022-09-29T03:50:00;5.68;;;2.50;;
74347;SDS011;62778;50.406;10.008;2022-09-29T03:50:55;5.30;;;2.43;;
74347;SDS011;62778;50.406;10.008;2022-09-29T03:51:51;5.40;;;2.70;;
74347;SDS011;62778;50.406;10.008;2022-09-29T03:52:46;5.32;;;2.70;;
74347;SDS011;62778;50.406;10.008;2022-09-29T03:53:42;5.03;;;2.40;;
74347;SDS011;62778;50.406;10.008;2022-09-29T03:54:37;6.83;;;3.17;;
74347;SDS011;62778;50.406;10.008;2022-09-29T03:55:32;5.20;;;2.70;;
74347;SDS011;62778;50.406;10.008;2022-09-29T03:56:28;5.47;;;2.93;;
74347;SDS011;62778;50.406;10.008;2022-09-29T03:57:23;5.05;;;2.53;;
74347;SDS011;62778;50.406;10.008;2022-09-29T03:58:18;5.87;;;2.87;;
74347;SDS011;62778;50.406;10.008;2022-09-29T03:59:14;5.90;;;3.00;;
74347;SDS011;62778;50.406;10.008;2022-09-29T04:00:09;5.50;;;2.75;;
74347;SDS011;62778;50.406;10.008;2022-09-29T04:01:05;5.57;;;2.67;;
74347;SDS011;62778;50.406;10.008;2022-09-29T04:02:01;6.20;;;2.90;;
74347;SDS011;62778;50.406;10.008;2022-09-29T04:02:56;6.03;;;3.13;;
74347;SDS011;62778;50.406;10.008;2022-09-29T04:03:52;5.45;;;2.90;;
74347;SDS011;62778;50.406;10.008;2022-09-29T04:04:47;5.90;;;2.80;;
74347;SDS011;62778;50.406;10.008;2022-09-29T04:05:46;6.30;;;3.20;;
74347;SDS011;62778;50.406;10.008;2022-09-29T04:06:42;7.82;;;3.08;;
74347;SDS011;62778;50.406;10.008;2022-09-29T04:07:37;4.97;;;2.50;;
74347;SDS011;62778;50.406;10.008;2022-09-29T04:08:36;5.27;;;2.83;;
74347;SDS011;62778;50.406;10.008;2022-09-29T04:09:31;6.45;;;3.00;;
74347;SDS011;62778;50.406;10.008;2022-09-29T04:10:26;6.43;;;3.20;;
74347;SDS011;62778;50.406;10.008;2022-09-29T04:11:22;5.82;;;3.00;;
74347;SDS011;62778;50.406;10.008;2022-09-29T04:12:17;6.10;;;2.90;;
74347;SDS011;62778;50.406;10.008;2022-09-29T04:13:12;5.87;;;2.90;;
74347;SDS011;62778;50.406;10.008;2022-09-29T04:14:08;5.47;;;2.80;;
74347;SDS011;62778;50.406;10.008;2022-09-29T04:15:03;6.10;;;2.77;;
74347;SDS011;62778;50.406;10.008;2022-09-29T04:16:03;5.47;;;3.15;;
74347;SDS011;62778;50.406;10.008;2022-09-29T04:16:59;6.72;;;3.92;;
74347;SDS011;62778;50.406;10.008;2022-09-29T04:17:54;5.90;;;3.20;;
74347;SDS011;62778;50.406;10.008;2022-09-29T04:18:50;6.35;;;3.50;;
74347;SDS011;62778;50.406;10.008;2022-09-29T04:19:45;6.60;;;3.00;;
74347;SDS011;62778;50.406;10.008;2022-09-29T04:20:41;7.37;;;3.30;;
74347;SDS011;62778;50.406;10.008;2022-09-29T04:21:36;6.65;;;3.80;;
74347;SDS011;62778;50.406;10.008;2022-09-29T04:22:31;6.00;;;2.80;;
74347;SDS011;62778;50.406;10.008;2022-09-29T04:23:27;8.03;;;3.50;;
74347;SDS011;62778;50.406;10.008;2022-09-29T04:24:24;7.22;;;3.63;;
74347;SDS011;62778;50.406;10.008;2022-09-29T04:25:19;7.03;;;3.13;;
74347;SDS011;62778;50.406;10.008;2022-09-29T04:26:15;5.70;;;3.00;;
74347;SDS011;62778;50.406;10.008;2022-09-29T04:27:10;5.93;;;3.10;;
74347;SDS011;62778;50.406;10.008;2022-09-29T04:28:06;6.07;;;3.07;;
74347;SDS011;62778;50.406;10.008;2022-09-29T04:29:01;6.33;;;3.30;;
74347;SDS011;62778;50.406;10.008;2022-09-29T04:29:56;6.43;;;3.45;;
74347;SDS011;62778;50.406;10.008;2022-09-29T04:30:52;6.13;;;3.10;;
74347;SDS011;62778;50.406;10.008;2022-09-29T04:31:47;7.03;;;3.10;;
74347;SDS011;62778;50.406;10.008;2022-09-29T04:32:42;6.43;;;3.57;;
74347;SDS011;62778;50.406;10.008;2022-09-29T04:33:38;8.40;;;4.20;;
74347;SDS011;62778;50.406;10.008;2022-09-29T04:34:33;8.40;;;4.53;;
74347;SDS011;62778;50.406;10.008;2022-09-29T04:35:29;8.90;;;4.63;;
74347;SDS011;62778;50.406;10.008;2022-09-29T04:36:24;5.80;;;3.10;;
74347;SDS011;62778;50.406;10.008;2022-09-29T04:37:19;6.47;;;3.50;;
74347;SDS011;62778;50.406;10.008;2022-09-29T04:38:15;7.20;;;2.83;;
74347;SDS011;62778;50.406;10.008;2022-09-29T04:39:10;6.97;;;3.60;;
74347;SDS011;62778;50.406;10.008;2022-09-29T04:40:05;7.43;;;3.27;;
74347;SDS011;62778;50.406;10.008;2022-09-29T04:41:01;7.53;;;3.60;;
74347;SDS011;62778;50.406;10.008;2022-09-29T04:41:56;8.07;;;3.63;;
74347;SDS011;62778;50.406;10.008;2022-09-29T04:42:51;6.67;;;3.30;;
74347;SDS011;62778;50.406;10.008;2022-09-29T04:43:47;7.22;;;4.10;;
74347;SDS011;62778;50.406;10.008;2022-09-29T04:44:42;8.03;;;4.23;;
74347;SDS011;62778;50.406;10.008;2022-09-29T04:45:37;7.23;;;3.90;;
74347;SDS011;62778;50.406;10.008;2022-09-29T04:46:33;7.70;;;3.93;;
74347;SDS011;62778;50.406;10.008;2022-09-29T04:47:28;6.07;;;3.70;;
74347;SDS011;62778;50.406;10.008;2022-09-29T04:48:23;6.93;;;3.80;;
74347;SDS011;62778;50.406;10.008;2022-09-29T04:49:19;7.50;;;4.03;;
74347;SDS011;62778;50.406;10.008;2022-09-29T04:50:14;11.00;;;6.90;;
74347;SDS011;62778;50.406;10.008;2022-09-29T04:51:10;13.27;;;10.77;;
74347;SDS011;62778;50.406;10.008;2022-09-29T04:52:05;11.17;;;8.03;;
74347;SDS011;62778;50.406;10.008;2022-09-29T04:53:00;8.83;;;5.67;;
74347;SDS011;62778;50.406;10.008;2022-09-29T04:53:58;7.53;;;4.20;;
74347;SDS011;62778;50.406;10.008;2022-09-29T04:54:54;7.13;;;3.70;;
74347;SDS011;62778;50.406;10.008;2022-09-29T04:55:49;6.90;;;3.80;;
74347;SDS011;62778;50.406;10.008;2022-09-29T04:56:47;8.82;;;3.85;;
74347;SDS011;62778;50.406;10.008;2022-09-29T04:57:45;8.18;;;3.90;;
74347;SDS011;62778;50.406;10.008;2022-09-29T04:58:41;7.57;;;4.40;;
74347;SDS011;62778;50.406;10.008;2022-09-29T04:59:36;13.27;;;5.73;;
74347;SDS011;62778;50.406;10.008;2022-09-29T05:00:31;15.23;;;4.40;;
74347;SDS011;62778;50.406;10.008;2022-09-29T05:01:27;8.53;;;4.10;;
74347;SDS011;62778;50.406;10.008;2022-09-29T05:02:23;8.40;;;3.75;;
74347;SDS011;62778;50.406;10.008;2022-09-29T05:03:19;19.00;;;4.20;;
74347;SDS011;62778;50.406;10.008;2022-09-29T05:04:14;20.17;;;3.95;;
74347;SDS011;62778;50.406;10.008;2022-09-29T05:05:09;29.70;;;4.07;;
74347;SDS011;62778;50.406;10.008;2022-09-29T05:06:07;16.10;;;3.10;;
74347;SDS011;62778;50.406;10.008;2022-09-29T05:07:03;16.23;;;3.10;;
74347;SDS011;62778;50.406;10.008;2022-09-29T05:07:59;13.43;;;3.40;;
74347;SDS011;62778;50.406;10.008;2022-09-29T05:08:58;23.40;;;3.80;;
74347;SDS011;62778;50.406;10.008;2022-09-29T05:09:53;15.03;;;3.13;;
74347;SDS011;62778;50.406;10.008;2022-09-29T05:10:48;25.80;;;4.63;;
74347;SDS011;62778;50.406;10.008;2022-09-29T05:11:45;28.05;;;3.75;;
74347;SDS011;62778;50.406;10.008;2022-09-29T05:12:40;10.93;;;3.53;;
74347;SDS011;62778;50.406;10.008;2022-09-29T05:13:41;13.35;;;3.42;;
74347;SDS011;62778;50.406;10.008;2022-09-29T05:14:37;11.33;;;3.20;;
74347;SDS011;62778;50.406;10.008;2022-09-29T05:15:32;29.00;;;4.63;;
74347;SDS011;62778;50.406;10.008;2022-09-29T05:16:27;45.93;;;5.90;;
74347;SDS011;62778;50.406;10.008;2022-09-29T05:17:23;18.00;;;4.03;;
74347;SDS011;62778;50.406;10.008;2022-09-29T05:18:18;15.17;;;3.43;;
74347;SDS011;62778;50.406;10.008;2022-09-29T05:19:13;7.83;;;3.30;;
74347;SDS011;62778;50.406;10.008;2022-09-29T05:20:09;8.80;;;2.90;;
74347;SDS011;62778;50.406;10.008;2022-09-29T05:21:06;17.02;;;3.47;;
74347;SDS011;62778;50.406;10.008;2022-09-29T05:22:02;12.48;;;3.90;;
74347;SDS011;62778;50.406;10.008;2022-09-29T05:22:57;12.57;;;3.70;;
74347;SDS011;62778;50.406;10.008;2022-09-29T05:23:54;18.42;;;4.20;;
74347;SDS011;62778;50.406;10.008;2022-09-29T05:24:50;12.05;;;4.65;;
74347;SDS011;62778;50.406;10.008;2022-09-29T05:25:46;18.67;;;4.60;;
74347;SDS011;62778;50.406;10.008;2022-09-29T05:26:41;11.97;;;4.60;;
74347;SDS011;62778;50.406;10.008;2022-09-29T05:27:36;11.80;;;4.30;;
74347;SDS011;62778;50.406;10.008;2022-09-29T05:28:32;11.45;;;3.95;;
74347;SDS011;62778;50.406;10.008;2022-09-29T05:29:27;13.93;;;4.37;;
74347;SDS011;62778;50.406;10.008;2022-09-29T05:30:23;11.07;;;4.17;;
74347;SDS011;62778;50.406;10.008;2022-09-29T05:31:18;12.60;;;4.90;;
74347;SDS011;62778;50.406;10.008;2022-09-29T05:32:13;10.57;;;4.17;;
74347;SDS011;62778;50.406;10.008;2022-09-29T05:33:09;13.60;;;4.60;;
74347;SDS011;62778;50.406;10.008;2022-09-29T05:34:04;13.90;;;4.93;;
74347;SDS011;62778;50.406;10.008;2022-09-29T05:34:59;8.67;;;4.20;;
74347;SDS011;62778;50.406;10.008;2022-09-29T05:35:55;13.50;;;4.70;;
74347;SDS011;62778;50.406;10.008;2022-09-29T05:36:50;11.30;;;5.25;;
74347;SDS011;62778;50.406;10.008;2022-09-29T05:37:46;8.37;;;4.10;;
74347;SDS011;62778;50.406;10.008;2022-09-29T05:38:41;7.90;;;4.10;;
74347;SDS011;62778;50.406;10.008;2022-09-29T05:39:36;7.67;;;4.20;;
74347;SDS011;62778;50.406;10.008;2022-09-29T05:40:32;8.45;;;4.32;;
74347;SDS011;62778;50.406;10.008;2022-09-29T05:41:27;7.80;;;4.40;;
74347;SDS011;62778;50.406;10.008;2022-09-29T05:42:22;8.17;;;4.53;;
74347;SDS011;62778;50.406;10.008;2022-09-29T05:43:19;8.35;;;4.20;;
74347;SDS011;62778;50.406;10.008;2022-09-29T05:44:14;7.50;;;4.20;;
74347;SDS011;62778;50.406;10.008;2022-09-29T05:45:10;7.57;;;4.00;;
74347;SDS011;62778;50.406;10.008;2022-09-29T05:46:06;8.63;;;4.53;;
74347;SDS011;62778;50.406;10.008;2022-09-29T05:47:02;8.27;;;4.85;;
74347;SDS011;62778;50.406;10.008;2022-09-29T05:47:58;9.20;;;4.53;;
74347;SDS011;62778;50.406;10.008;2022-09-29T05:48:53;7.43;;;3.97;;
74347;SDS011;62778;50.406;10.008;2022-09-29T05:49:49;8.40;;;4.07;;
74347;SDS011;62778;50.406;10.008;2022-09-29T05:50:44;8.40;;;4.03;;
74347;SDS011;62778;50.406;10.008;2022-09-29T05:51:40;10.43;;;4.97;;
74347;SDS011;62778;50.406;10.008;2022-09-29T05:52:35;11.87;;;4.60;;
74347;SDS011;62778;50.406;10.008;2022-09-29T05:53:30;11.83;;;5.27;;
74347;SDS011;62778;50.406;10.008;2022-09-29T05:54:26;10.65;;;4.57;;
74347;SDS011;62778;50.406;10.008;2022-09-29T05:55:21;12.63;;;4.67;;
74347;SDS011;62778;50.406;10.008;2022-09-29T05:56:19;15.32;;;4.80;;
74347;SDS011;62778;50.406;10.008;2022-09-29T05:57:17;9.55;;;4.22;;
74347;SDS011;62778;50.406;10.008;2022-09-29T05:58:12;12.45;;;4.90;;
74347;SDS011;62778;50.406;10.008;2022-09-29T05:59:08;12.23;;;4.93;;
74347;SDS011;62778;50.406;10.008;2022-09-29T06:00:04;14.50;;;5.10;;
74347;SDS011;62778;50.406;10.008;2022-09-29T06:01:04;14.82;;;5.00;;
74347;SDS011;62778;50.406;10.008;2022-09-29T06:02:00;14.13;;;4.68;;
74347;SDS011;62778;50.406;10.008;2022-09-29T06:02:59;20.07;;;5.17;;
74347;SDS011;62778;50.406;10.008;2022-09-29T06:03:55;14.43;;;4.07;;
74347;SDS011;62778;50.406;10.008;2022-09-29T06:04:50;17.60;;;4.30;;
74347;SDS011;62778;50.406;10.008;2022-09-29T06:05:46;19.58;;;4.60;;
74347;SDS011;62778;50.406;10.008;2022-09-29T06:06:41;17.47;;;3.80;;
74347;SDS011;62778;50.406;10.008;2022-09-29T06:07:36;14.13;;;3.70;;
74347;SDS011;62778;50.406;10.008;2022-09-29T06:08:32;16.80;;;3.70;;
74347;SDS011;62778;50.406;10.008;2022-09-29T06:09:28;19.20;;;3.22;;
74347;SDS011;62778;50.406;10.008;2022-09-29T06:10:23;8.97;;;3.30;;
74347;SDS011;62778;50.406;10.008;2022-09-29T06:11:19;16.93;;;3.90;;
74347;SDS011;62778;50.406;10.008;2022-09-29T06:12:16;10.32;;;3.90;;